sensor_id;sensor_type;location;lat;lon;timestamp;P1;durP1;ratioP1;P2;durP2;ratioP2
50010;SDS011;35899;50.352;19.390;2022-12-29T00:01:54;9.33;;;3.33;;
50010;SDS011;35899;50.352;19.390;2022-12-29T00:04:20;6.65;;;2.80;;
50010;SDS011;35899;50.352;19.390;2022-12-29T00:06:47;12.03;;;4.53;;
50010;SDS011;35899;50.352;19.390;2022-12-29T00:09:15;9.85;;;3.27;;
50010;SDS011;35899;50.352;19.390;2022-12-29T00:11:42;8.68;;;3.27;;
50010;SDS011;35899;50.352;19.390;2022-12-29T00:14:08;7.62;;;3.22;;
50010;SDS011;35899;50.352;19.390;2022-12-29T00:16:37;8.58;;;2.90;;
50010;SDS011;35899;50.352;19.390;2022-12-29T00:19:06;12.58;;;4.33;;
50010;SDS011;35899;50.352;19.390;2022-12-29T00:21:33;13.62;;;4.37;;
50010;SDS011;35899;50.352;19.390;2022-12-29T00:24:00;12.88;;;4.08;;
50010;SDS011;35899;50.352;19.390;2022-12-29T00:26:26;8.98;;;3.62;;
50010;SDS011;35899;50.352;19.390;2022-12-29T00:28:52;8.45;;;3.35;;
50010;SDS011;35899;50.352;19.390;2022-12-29T00:31:19;9.55;;;4.12;;
50010;SDS011;35899;50.352;19.390;2022-12-29T00:33:45;9.10;;;3.42;;
50010;SDS011;35899;50.352;19.390;2022-12-29T00:36:16;10.50;;;3.70;;
50010;SDS011;35899;50.352;19.390;2022-12-29T00:38:51;9.15;;;3.47;;
50010;SDS011;35899;50.352;19.390;2022-12-29T00:41:24;8.58;;;3.05;;
50010;SDS011;35899;50.352;19.390;2022-12-29T00:43:51;6.92;;;3.55;;
50010;SDS011;35899;50.352;19.390;2022-12-29T00:46:17;9.43;;;3.72;;
50010;SDS011;35899;50.352;19.390;2022-12-29T00:48:43;13.72;;;4.08;;
50010;SDS011;35899;50.352;19.390;2022-12-29T00:51:10;10.00;;;3.83;;
50010;SDS011;35899;50.352;19.390;2022-12-29T00:53:36;10.20;;;4.30;;
50010;SDS011;35899;50.352;19.390;2022-12-29T00:56:03;7.17;;;3.77;;
50010;SDS011;35899;50.352;19.390;2022-12-29T00:58:30;9.73;;;3.75;;
50010;SDS011;35899;50.352;19.390;2022-12-29T01:01:00;10.78;;;4.15;;
50010;SDS011;35899;50.352;19.390;2022-12-29T01:03:32;8.73;;;3.67;;
50010;SDS011;35899;50.352;19.390;2022-12-29T01:06:00;8.50;;;3.65;;
50010;SDS011;35899;50.352;19.390;2022-12-29T01:08:29;9.15;;;3.85;;
50010;SDS011;35899;50.352;19.390;2022-12-29T01:10:57;9.80;;;3.60;;
50010;SDS011;35899;50.352;19.390;2022-12-29T01:13:33;8.43;;;3.85;;
50010;SDS011;35899;50.352;19.390;2022-12-29T01:16:01;9.98;;;4.08;;
50010;SDS011;35899;50.352;19.390;2022-12-29T01:18:28;8.48;;;3.77;;
50010;SDS011;35899;50.352;19.390;2022-12-29T01:21:00;7.72;;;3.77;;
50010;SDS011;35899;50.352;19.390;2022-12-29T01:23:30;8.15;;;3.10;;
50010;SDS011;35899;50.352;19.390;2022-12-29T01:26:07;7.85;;;3.55;;
50010;SDS011;35899;50.352;19.390;2022-12-29T01:28:36;7.33;;;3.25;;
50010;SDS011;35899;50.352;19.390;2022-12-29T01:31:02;8.98;;;3.55;;
50010;SDS011;35899;50.352;19.390;2022-12-29T01:33:29;6.75;;;3.30;;
50010;SDS011;35899;50.352;19.390;2022-12-29T01:36:00;9.40;;;4.10;;
50010;SDS011;35899;50.352;19.390;2022-12-29T01:38:28;19.23;;;8.03;;
50010;SDS011;35899;50.352;19.390;2022-12-29T01:40:54;130.63;;;34.15;;
50010;SDS011;35899;50.352;19.390;2022-12-29T01:43:20;19.52;;;6.65;;
50010;SDS011;35899;50.352;19.390;2022-12-29T01:45:51;14.60;;;5.05;;
50010;SDS011;35899;50.352;19.390;2022-12-29T01:48:17;9.50;;;4.20;;
50010;SDS011;35899;50.352;19.390;2022-12-29T01:50:50;14.90;;;5.28;;
50010;SDS011;35899;50.352;19.390;2022-12-29T01:53:22;8.77;;;3.90;;
50010;SDS011;35899;50.352;19.390;2022-12-29T01:55:51;8.10;;;3.70;;
50010;SDS011;35899;50.352;19.390;2022-12-29T01:58:22;10.00;;;4.08;;
50010;SDS011;35899;50.352;19.390;2022-12-29T02:00:52;8.90;;;3.37;;
50010;SDS011;35899;50.352;19.390;2022-12-29T02:03:19;7.20;;;3.52;;
50010;SDS011;35899;50.352;19.390;2022-12-29T02:05:56;10.40;;;3.90;;
50010;SDS011;35899;50.352;19.390;2022-12-29T02:08:29;12.25;;;4.50;;
50010;SDS011;35899;50.352;19.390;2022-12-29T02:10:56;18.85;;;5.80;;
50010;SDS011;35899;50.352;19.390;2022-12-29T02:13:24;21.27;;;6.78;;
50010;SDS011;35899;50.352;19.390;2022-12-29T02:21:51;29.57;;;9.28;;
50010;SDS011;35899;50.352;19.390;2022-12-29T02:31:31;24.60;;;7.65;;
50010;SDS011;35899;50.352;19.390;2022-12-29T02:38:08;11.28;;;5.47;;
50010;SDS011;35899;50.352;19.390;2022-12-29T02:42:46;69.77;;;17.50;;
50010;SDS011;35899;50.352;19.390;2022-12-29T02:48:23;12.68;;;6.17;;
50010;SDS011;35899;50.352;19.390;2022-12-29T02:51:15;10.55;;;5.33;;
50010;SDS011;35899;50.352;19.390;2022-12-29T02:53:41;13.93;;;6.83;;
50010;SDS011;35899;50.352;19.390;2022-12-29T02:56:08;8.93;;;4.35;;
50010;SDS011;35899;50.352;19.390;2022-12-29T02:58:34;10.10;;;4.87;;
50010;SDS011;35899;50.352;19.390;2022-12-29T03:09:54;11.93;;;5.62;;
50010;SDS011;35899;50.352;19.390;2022-12-29T03:13:03;11.38;;;5.47;;
50010;SDS011;35899;50.352;19.390;2022-12-29T03:16:03;18.17;;;7.25;;
50010;SDS011;35899;50.352;19.390;2022-12-29T03:24:36;10.93;;;5.47;;
50010;SDS011;35899;50.352;19.390;2022-12-29T03:27:07;13.95;;;4.92;;
50010;SDS011;35899;50.352;19.390;2022-12-29T03:29:39;10.65;;;5.50;;
50010;SDS011;35899;50.352;19.390;2022-12-29T03:32:11;19.32;;;6.62;;
50010;SDS011;35899;50.352;19.390;2022-12-29T03:34:39;11.38;;;4.67;;
50010;SDS011;35899;50.352;19.390;2022-12-29T03:37:07;9.53;;;5.60;;
50010;SDS011;35899;50.352;19.390;2022-12-29T03:39:36;10.23;;;5.42;;
50010;SDS011;35899;50.352;19.390;2022-12-29T03:42:11;8.93;;;3.98;;
50010;SDS011;35899;50.352;19.390;2022-12-29T03:44:47;9.90;;;4.67;;
50010;SDS011;35899;50.352;19.390;2022-12-29T03:47:14;9.70;;;4.60;;
50010;SDS011;35899;50.352;19.390;2022-12-29T03:49:42;9.45;;;4.72;;
50010;SDS011;35899;50.352;19.390;2022-12-29T03:52:08;11.57;;;4.92;;
50010;SDS011;35899;50.352;19.390;2022-12-29T03:54:36;8.00;;;4.28;;
50010;SDS011;35899;50.352;19.390;2022-12-29T03:57:03;23.95;;;8.58;;
50010;SDS011;35899;50.352;19.390;2022-12-29T03:59:31;10.88;;;4.85;;
50010;SDS011;35899;50.352;19.390;2022-12-29T04:01:57;10.25;;;4.42;;
50010;SDS011;35899;50.352;19.390;2022-12-29T04:04:24;8.05;;;4.50;;
50010;SDS011;35899;50.352;19.390;2022-12-29T04:06:50;12.10;;;5.35;;
50010;SDS011;35899;50.352;19.390;2022-12-29T04:09:18;15.72;;;6.42;;
50010;SDS011;35899;50.352;19.390;2022-12-29T04:11:46;11.53;;;5.42;;
50010;SDS011;35899;50.352;19.390;2022-12-29T04:14:13;11.90;;;5.85;;
50010;SDS011;35899;50.352;19.390;2022-12-29T04:16:40;11.68;;;5.60;;
50010;SDS011;35899;50.352;19.390;2022-12-29T04:19:08;12.90;;;5.80;;
50010;SDS011;35899;50.352;19.390;2022-12-29T04:21:35;13.90;;;6.53;;
50010;SDS011;35899;50.352;19.390;2022-12-29T04:24:03;16.85;;;6.67;;
50010;SDS011;35899;50.352;19.390;2022-12-29T04:26:31;17.35;;;6.78;;
50010;SDS011;35899;50.352;19.390;2022-12-29T04:29:00;18.00;;;8.23;;
50010;SDS011;35899;50.352;19.390;2022-12-29T04:31:29;18.55;;;8.58;;
50010;SDS011;35899;50.352;19.390;2022-12-29T04:33:55;22.30;;;8.98;;
50010;SDS011;35899;50.352;19.390;2022-12-29T04:36:22;16.45;;;6.53;;
50010;SDS011;35899;50.352;19.390;2022-12-29T04:38:49;14.60;;;7.15;;
50010;SDS011;35899;50.352;19.390;2022-12-29T04:41:16;14.03;;;6.33;;
50010;SDS011;35899;50.352;19.390;2022-12-29T04:43:42;12.28;;;6.15;;
50010;SDS011;35899;50.352;19.390;2022-12-29T04:46:13;12.25;;;6.17;;
50010;SDS011;35899;50.352;19.390;2022-12-29T04:48:42;16.80;;;7.58;;
50010;SDS011;35899;50.352;19.390;2022-12-29T04:51:25;14.05;;;6.85;;
50010;SDS011;35899;50.352;19.390;2022-12-29T04:53:52;13.95;;;6.08;;
50010;SDS011;35899;50.352;19.390;2022-12-29T04:56:18;12.03;;;5.90;;
50010;SDS011;35899;50.352;19.390;2022-12-29T04:58:45;17.30;;;7.92;;
50010;SDS011;35899;50.352;19.390;2022-12-29T05:01:12;14.13;;;7.28;;
50010;SDS011;35899;50.352;19.390;2022-12-29T05:03:39;13.22;;;5.92;;
50010;SDS011;35899;50.352;19.390;2022-12-29T05:06:06;13.65;;;6.40;;
50010;SDS011;35899;50.352;19.390;2022-12-29T05:08:32;13.65;;;7.00;;
50010;SDS011;35899;50.352;19.390;2022-12-29T05:11:00;13.98;;;6.80;;
50010;SDS011;35899;50.352;19.390;2022-12-29T05:13:27;14.30;;;6.12;;
50010;SDS011;35899;50.352;19.390;2022-12-29T05:15:53;13.65;;;6.58;;
50010;SDS011;35899;50.352;19.390;2022-12-29T05:18:21;15.85;;;7.42;;
50010;SDS011;35899;50.352;19.390;2022-12-29T05:20:48;19.27;;;8.75;;
50010;SDS011;35899;50.352;19.390;2022-12-29T05:23:17;13.53;;;6.90;;
50010;SDS011;35899;50.352;19.390;2022-12-29T05:25:45;15.53;;;6.95;;
50010;SDS011;35899;50.352;19.390;2022-12-29T05:28:13;16.05;;;6.90;;
50010;SDS011;35899;50.352;19.390;2022-12-29T05:30:47;15.58;;;6.95;;
50010;SDS011;35899;50.352;19.390;2022-12-29T05:33:18;13.00;;;6.78;;
50010;SDS011;35899;50.352;19.390;2022-12-29T05:35:45;15.45;;;7.37;;
50010;SDS011;35899;50.352;19.390;2022-12-29T05:38:12;14.93;;;7.33;;
50010;SDS011;35899;50.352;19.390;2022-12-29T05:40:39;18.35;;;9.00;;
50010;SDS011;35899;50.352;19.390;2022-12-29T05:43:10;12.05;;;7.08;;
50010;SDS011;35899;50.352;19.390;2022-12-29T05:45:41;24.52;;;11.78;;
50010;SDS011;35899;50.352;19.390;2022-12-29T05:48:12;23.25;;;13.03;;
50010;SDS011;35899;50.352;19.390;2022-12-29T05:50:57;18.23;;;10.90;;
50010;SDS011;35899;50.352;19.390;2022-12-29T05:53:25;23.40;;;12.82;;
50010;SDS011;35899;50.352;19.390;2022-12-29T05:55:52;30.12;;;15.48;;
50010;SDS011;35899;50.352;19.390;2022-12-29T05:58:19;21.20;;;11.00;;
50010;SDS011;35899;50.352;19.390;2022-12-29T06:00:46;24.75;;;11.68;;
50010;SDS011;35899;50.352;19.390;2022-12-29T06:03:13;30.82;;;14.03;;
50010;SDS011;35899;50.352;19.390;2022-12-29T06:05:40;45.58;;;21.25;;
50010;SDS011;35899;50.352;19.390;2022-12-29T06:08:07;50.63;;;23.75;;
50010;SDS011;35899;50.352;19.390;2022-12-29T06:10:33;31.75;;;15.30;;
50010;SDS011;35899;50.352;19.390;2022-12-29T06:13:02;32.13;;;16.80;;
50010;SDS011;35899;50.352;19.390;2022-12-29T06:15:30;31.40;;;17.42;;
50010;SDS011;35899;50.352;19.390;2022-12-29T06:17:58;29.82;;;14.75;;
50010;SDS011;35899;50.352;19.390;2022-12-29T06:20:24;24.50;;;12.63;;
50010;SDS011;35899;50.352;19.390;2022-12-29T06:22:51;22.00;;;10.85;;
50010;SDS011;35899;50.352;19.390;2022-12-29T06:25:18;21.45;;;11.03;;
50010;SDS011;35899;50.352;19.390;2022-12-29T06:27:44;25.27;;;12.25;;
50010;SDS011;35899;50.352;19.390;2022-12-29T06:30:11;25.35;;;11.53;;
50010;SDS011;35899;50.352;19.390;2022-12-29T06:32:39;20.37;;;9.25;;
50010;SDS011;35899;50.352;19.390;2022-12-29T06:35:09;20.62;;;10.03;;
50010;SDS011;35899;50.352;19.390;2022-12-29T06:37:37;20.82;;;10.43;;
50010;SDS011;35899;50.352;19.390;2022-12-29T06:40:04;26.45;;;11.53;;
50010;SDS011;35899;50.352;19.390;2022-12-29T06:42:34;25.08;;;11.30;;
50010;SDS011;35899;50.352;19.390;2022-12-29T06:45:14;50.08;;;17.40;;
50010;SDS011;35899;50.352;19.390;2022-12-29T06:47:40;54.03;;;17.98;;
50010;SDS011;35899;50.352;19.390;2022-12-29T06:50:07;149.00;;;37.65;;
50010;SDS011;35899;50.352;19.390;2022-12-29T06:52:34;129.65;;;36.65;;
50010;SDS011;35899;50.352;19.390;2022-12-29T06:55:00;203.80;;;50.73;;
50010;SDS011;35899;50.352;19.390;2022-12-29T06:57:27;291.73;;;72.12;;
50010;SDS011;35899;50.352;19.390;2022-12-29T06:59:54;146.02;;;41.73;;
50010;SDS011;35899;50.352;19.390;2022-12-29T07:02:20;76.20;;;25.20;;
50010;SDS011;35899;50.352;19.390;2022-12-29T07:04:47;77.80;;;25.82;;
50010;SDS011;35899;50.352;19.390;2022-12-29T07:07:13;79.00;;;20.65;;
50010;SDS011;35899;50.352;19.390;2022-12-29T07:09:40;96.32;;;27.93;;
50010;SDS011;35899;50.352;19.390;2022-12-29T07:12:06;80.25;;;22.37;;
50010;SDS011;35899;50.352;19.390;2022-12-29T07:14:32;69.27;;;22.67;;
50010;SDS011;35899;50.352;19.390;2022-12-29T07:16:59;69.30;;;23.25;;
50010;SDS011;35899;50.352;19.390;2022-12-29T07:19:25;70.05;;;22.58;;
50010;SDS011;35899;50.352;19.390;2022-12-29T07:21:51;44.40;;;15.55;;
50010;SDS011;35899;50.352;19.390;2022-12-29T07:24:20;31.87;;;14.53;;
50010;SDS011;35899;50.352;19.390;2022-12-29T07:26:46;31.97;;;12.75;;
50010;SDS011;35899;50.352;19.390;2022-12-29T07:29:13;22.62;;;11.70;;
50010;SDS011;35899;50.352;19.390;2022-12-29T07:31:39;24.30;;;10.82;;
50010;SDS011;35899;50.352;19.390;2022-12-29T07:34:07;24.10;;;11.22;;
50010;SDS011;35899;50.352;19.390;2022-12-29T07:36:34;20.90;;;10.88;;
50010;SDS011;35899;50.352;19.390;2022-12-29T07:39:01;21.70;;;11.25;;
50010;SDS011;35899;50.352;19.390;2022-12-29T07:41:28;50.65;;;17.65;;
50010;SDS011;35899;50.352;19.390;2022-12-29T07:43:55;76.60;;;23.10;;
50010;SDS011;35899;50.352;19.390;2022-12-29T07:46:33;100.42;;;27.65;;
50010;SDS011;35899;50.352;19.390;2022-12-29T07:49:00;95.15;;;28.50;;
50010;SDS011;35899;50.352;19.390;2022-12-29T07:51:26;145.15;;;38.98;;
50010;SDS011;35899;50.352;19.390;2022-12-29T07:53:53;60.33;;;23.15;;
50010;SDS011;35899;50.352;19.390;2022-12-29T07:56:19;79.17;;;26.20;;
50010;SDS011;35899;50.352;19.390;2022-12-29T07:58:45;109.57;;;31.02;;
50010;SDS011;35899;50.352;19.390;2022-12-29T08:01:12;78.60;;;25.00;;
50010;SDS011;35899;50.352;19.390;2022-12-29T08:03:39;52.08;;;18.52;;
50010;SDS011;35899;50.352;19.390;2022-12-29T08:06:05;45.10;;;15.72;;
50010;SDS011;35899;50.352;19.390;2022-12-29T08:08:37;49.98;;;17.48;;
50010;SDS011;35899;50.352;19.390;2022-12-29T08:11:03;56.53;;;19.23;;
50010;SDS011;35899;50.352;19.390;2022-12-29T08:13:29;70.10;;;21.15;;
50010;SDS011;35899;50.352;19.390;2022-12-29T08:15:57;52.73;;;18.57;;
50010;SDS011;35899;50.352;19.390;2022-12-29T08:18:23;41.98;;;16.82;;
50010;SDS011;35899;50.352;19.390;2022-12-29T08:20:50;35.40;;;15.45;;
50010;SDS011;35899;50.352;19.390;2022-12-29T08:23:17;44.27;;;18.60;;
50010;SDS011;35899;50.352;19.390;2022-12-29T08:25:43;42.95;;;17.20;;
50010;SDS011;35899;50.352;19.390;2022-12-29T08:28:09;42.13;;;18.40;;
50010;SDS011;35899;50.352;19.390;2022-12-29T08:30:36;42.48;;;17.30;;
50010;SDS011;35899;50.352;19.390;2022-12-29T08:33:02;35.78;;;15.50;;
50010;SDS011;35899;50.352;19.390;2022-12-29T08:35:28;31.23;;;13.28;;
50010;SDS011;35899;50.352;19.390;2022-12-29T08:37:55;47.17;;;18.17;;
50010;SDS011;35899;50.352;19.390;2022-12-29T08:40:21;33.58;;;14.30;;
50010;SDS011;35899;50.352;19.390;2022-12-29T08:42:47;24.23;;;11.80;;
50010;SDS011;35899;50.352;19.390;2022-12-29T08:45:14;23.20;;;11.68;;
50010;SDS011;35899;50.352;19.390;2022-12-29T08:47:41;29.25;;;12.82;;
50010;SDS011;35899;50.352;19.390;2022-12-29T08:50:07;28.15;;;13.45;;
50010;SDS011;35899;50.352;19.390;2022-12-29T08:52:34;26.87;;;14.18;;
50010;SDS011;35899;50.352;19.390;2022-12-29T08:55:00;26.27;;;13.10;;
50010;SDS011;35899;50.352;19.390;2022-12-29T08:57:27;29.80;;;14.13;;
50010;SDS011;35899;50.352;19.390;2022-12-29T08:59:58;31.12;;;15.30;;
50010;SDS011;35899;50.352;19.390;2022-12-29T09:02:24;29.63;;;14.00;;
50010;SDS011;35899;50.352;19.390;2022-12-29T09:04:51;31.62;;;14.28;;
50010;SDS011;35899;50.352;19.390;2022-12-29T09:07:17;26.95;;;13.08;;
50010;SDS011;35899;50.352;19.390;2022-12-29T09:09:44;34.10;;;16.02;;
50010;SDS011;35899;50.352;19.390;2022-12-29T09:12:10;25.65;;;13.38;;
50010;SDS011;35899;50.352;19.390;2022-12-29T09:14:36;25.27;;;14.33;;
50010;SDS011;35899;50.352;19.390;2022-12-29T09:17:03;22.77;;;13.25;;
50010;SDS011;35899;50.352;19.390;2022-12-29T09:19:30;29.92;;;15.45;;
50010;SDS011;35899;50.352;19.390;2022-12-29T09:21:56;26.77;;;16.15;;
50010;SDS011;35899;50.352;19.390;2022-12-29T09:24:23;24.45;;;14.63;;
50010;SDS011;35899;50.352;19.390;2022-12-29T09:26:49;24.52;;;13.75;;
50010;SDS011;35899;50.352;19.390;2022-12-29T09:29:17;18.90;;;12.15;;
50010;SDS011;35899;50.352;19.390;2022-12-29T09:31:44;19.10;;;12.45;;
50010;SDS011;35899;50.352;19.390;2022-12-29T09:34:10;19.92;;;10.75;;
50010;SDS011;35899;50.352;19.390;2022-12-29T09:36:37;19.17;;;11.03;;
50010;SDS011;35899;50.352;19.390;2022-12-29T09:39:04;17.40;;;9.20;;
50010;SDS011;35899;50.352;19.390;2022-12-29T09:41:34;41.23;;;18.90;;
50010;SDS011;35899;50.352;19.390;2022-12-29T09:44:07;23.32;;;12.25;;
50010;SDS011;35899;50.352;19.390;2022-12-29T09:46:50;19.77;;;10.93;;
50010;SDS011;35899;50.352;19.390;2022-12-29T09:49:27;29.55;;;15.65;;
50010;SDS011;35899;50.352;19.390;2022-12-29T09:51:54;31.20;;;15.15;;
50010;SDS011;35899;50.352;19.390;2022-12-29T09:57:02;11.88;;;6.45;;
50010;SDS011;35899;50.352;19.390;2022-12-29T09:59:35;10.60;;;6.67;;
50010;SDS011;35899;50.352;19.390;2022-12-29T10:02:27;12.63;;;7.87;;
50010;SDS011;35899;50.352;19.390;2022-12-29T10:04:58;11.30;;;7.55;;
50010;SDS011;35899;50.352;19.390;2022-12-29T10:07:40;12.23;;;7.12;;
50010;SDS011;35899;50.352;19.390;2022-12-29T10:13:32;11.78;;;5.95;;
50010;SDS011;35899;50.352;19.390;2022-12-29T10:19:25;12.30;;;6.58;;
50010;SDS011;35899;50.352;19.390;2022-12-29T10:22:04;12.53;;;6.42;;
50010;SDS011;35899;50.352;19.390;2022-12-29T10:24:41;11.57;;;6.03;;
50010;SDS011;35899;50.352;19.390;2022-12-29T10:27:12;10.68;;;5.35;;
50010;SDS011;35899;50.352;19.390;2022-12-29T10:29:43;9.25;;;5.67;;
50010;SDS011;35899;50.352;19.390;2022-12-29T10:35:10;8.83;;;4.78;;
50010;SDS011;35899;50.352;19.390;2022-12-29T10:40:36;9.28;;;5.12;;
50010;SDS011;35899;50.352;19.390;2022-12-29T10:43:07;8.68;;;4.53;;
50010;SDS011;35899;50.352;19.390;2022-12-29T10:45:37;9.23;;;5.28;;
50010;SDS011;35899;50.352;19.390;2022-12-29T10:48:06;12.20;;;7.25;;
50010;SDS011;35899;50.352;19.390;2022-12-29T10:50:39;8.95;;;4.70;;
50010;SDS011;35899;50.352;19.390;2022-12-29T10:53:06;9.55;;;4.90;;
50010;SDS011;35899;50.352;19.390;2022-12-29T10:55:34;10.78;;;5.55;;
50010;SDS011;35899;50.352;19.390;2022-12-29T10:58:06;15.58;;;8.45;;
50010;SDS011;35899;50.352;19.390;2022-12-29T11:00:36;159.03;;;100.80;;
50010;SDS011;35899;50.352;19.390;2022-12-29T11:06:09;29.45;;;17.17;;
50010;SDS011;35899;50.352;19.390;2022-12-29T11:08:43;22.65;;;15.78;;
50010;SDS011;35899;50.352;19.390;2022-12-29T11:11:25;14.93;;;10.48;;
50010;SDS011;35899;50.352;19.390;2022-12-29T11:13:56;9.43;;;5.58;;
50010;SDS011;35899;50.352;19.390;2022-12-29T11:16:27;15.50;;;9.55;;
50010;SDS011;35899;50.352;19.390;2022-12-29T11:18:58;67.72;;;34.45;;
50010;SDS011;35899;50.352;19.390;2022-12-29T11:24:03;15.00;;;12.30;;
50010;SDS011;35899;50.352;19.390;2022-12-29T11:26:34;17.45;;;13.00;;
50010;SDS011;35899;50.352;19.390;2022-12-29T11:31:57;9.45;;;5.62;;
50010;SDS011;35899;50.352;19.390;2022-12-29T11:34:30;8.80;;;5.17;;
50010;SDS011;35899;50.352;19.390;2022-12-29T11:37:05;11.53;;;5.15;;
50010;SDS011;35899;50.352;19.390;2022-12-29T11:39:46;11.68;;;5.58;;
50010;SDS011;35899;50.352;19.390;2022-12-29T11:42:38;11.25;;;6.03;;
50010;SDS011;35899;50.352;19.390;2022-12-29T11:47:53;9.73;;;5.12;;
50010;SDS011;35899;50.352;19.390;2022-12-29T11:50:30;8.85;;;4.87;;
50010;SDS011;35899;50.352;19.390;2022-12-29T11:53:00;8.07;;;4.70;;
50010;SDS011;35899;50.352;19.390;2022-12-29T11:55:33;9.60;;;4.87;;
50010;SDS011;35899;50.352;19.390;2022-12-29T11:58:00;10.45;;;5.03;;
50010;SDS011;35899;50.352;19.390;2022-12-29T12:00:30;8.48;;;4.78;;
50010;SDS011;35899;50.352;19.390;2022-12-29T12:03:04;11.18;;;5.10;;
50010;SDS011;35899;50.352;19.390;2022-12-29T12:06:03;11.20;;;5.60;;
50010;SDS011;35899;50.352;19.390;2022-12-29T12:08:32;7.92;;;5.03;;
50010;SDS011;35899;50.352;19.390;2022-12-29T12:11:18;9.03;;;4.92;;
50010;SDS011;35899;50.352;19.390;2022-12-29T12:13:58;10.28;;;5.10;;
50010;SDS011;35899;50.352;19.390;2022-12-29T12:16:35;11.22;;;5.33;;
50010;SDS011;35899;50.352;19.390;2022-12-29T12:27:48;12.50;;;5.75;;
50010;SDS011;35899;50.352;19.390;2022-12-29T12:30:27;10.72;;;5.22;;
50010;SDS011;35899;50.352;19.390;2022-12-29T13:13:22;12.95;;;8.60;;
50010;SDS011;35899;50.352;19.390;2022-12-29T13:18:27;12.18;;;7.08;;
50010;SDS011;35899;50.352;19.390;2022-12-29T13:26:20;12.78;;;6.85;;
50010;SDS011;35899;50.352;19.390;2022-12-29T13:31:32;9.40;;;5.47;;
50010;SDS011;35899;50.352;19.390;2022-12-29T13:37:09;11.12;;;5.28;;
50010;SDS011;35899;50.352;19.390;2022-12-29T13:39:51;8.93;;;5.37;;
50010;SDS011;35899;50.352;19.390;2022-12-29T13:42:27;9.75;;;5.70;;
50010;SDS011;35899;50.352;19.390;2022-12-29T13:44:59;25.35;;;19.77;;
50010;SDS011;35899;50.352;19.390;2022-12-29T13:47:36;12.18;;;7.87;;
50010;SDS011;35899;50.352;19.390;2022-12-29T13:50:08;12.65;;;7.60;;
50010;SDS011;35899;50.352;19.390;2022-12-29T13:52:55;10.28;;;6.08;;
50010;SDS011;35899;50.352;19.390;2022-12-29T13:58:12;16.93;;;10.25;;
50010;SDS011;35899;50.352;19.390;2022-12-29T14:01:08;14.03;;;6.70;;
50010;SDS011;35899;50.352;19.390;2022-12-29T14:03:51;12.75;;;6.47;;
50010;SDS011;35899;50.352;19.390;2022-12-29T14:06:32;12.18;;;7.05;;
50010;SDS011;35899;50.352;19.390;2022-12-29T14:08:58;12.33;;;7.17;;
50010;SDS011;35899;50.352;19.390;2022-12-29T14:11:31;14.25;;;7.50;;
50010;SDS011;35899;50.352;19.390;2022-12-29T14:14:10;12.33;;;6.28;;
50010;SDS011;35899;50.352;19.390;2022-12-29T14:16:49;13.32;;;7.25;;
50010;SDS011;35899;50.352;19.390;2022-12-29T14:19:16;12.25;;;7.10;;
50010;SDS011;35899;50.352;19.390;2022-12-29T14:21:56;15.13;;;7.30;;
50010;SDS011;35899;50.352;19.390;2022-12-29T14:24:28;12.60;;;7.65;;
50010;SDS011;35899;50.352;19.390;2022-12-29T14:27:20;14.33;;;7.00;;
50010;SDS011;35899;50.352;19.390;2022-12-29T14:34:54;15.00;;;7.47;;
50010;SDS011;35899;50.352;19.390;2022-12-29T14:42:53;43.15;;;16.12;;
50010;SDS011;35899;50.352;19.390;2022-12-29T14:45:30;19.85;;;9.65;;
50010;SDS011;35899;50.352;19.390;2022-12-29T14:47:57;29.48;;;12.20;;
50010;SDS011;35899;50.352;19.390;2022-12-29T14:50:24;17.10;;;9.30;;
50010;SDS011;35899;50.352;19.390;2022-12-29T14:53:40;15.95;;;8.28;;
50010;SDS011;35899;50.352;19.390;2022-12-29T14:56:10;16.23;;;8.65;;
50010;SDS011;35899;50.352;19.390;2022-12-29T14:58:56;14.25;;;6.83;;
50010;SDS011;35899;50.352;19.390;2022-12-29T15:04:17;14.68;;;7.33;;
50010;SDS011;35899;50.352;19.390;2022-12-29T15:06:52;18.23;;;8.08;;
50010;SDS011;35899;50.352;19.390;2022-12-29T15:09:24;15.63;;;9.70;;
50010;SDS011;35899;50.352;19.390;2022-12-29T15:17:52;15.00;;;7.08;;
50010;SDS011;35899;50.352;19.390;2022-12-29T15:20:24;12.90;;;6.70;;
50010;SDS011;35899;50.352;19.390;2022-12-29T15:22:57;11.00;;;6.03;;
50010;SDS011;35899;50.352;19.390;2022-12-29T15:25:27;113.68;;;30.08;;
50010;SDS011;35899;50.352;19.390;2022-12-29T15:27:56;49.75;;;16.15;;
50010;SDS011;35899;50.352;19.390;2022-12-29T15:30:28;76.15;;;22.07;;
50010;SDS011;35899;50.352;19.390;2022-12-29T15:32:54;22.07;;;9.30;;
50010;SDS011;35899;50.352;19.390;2022-12-29T15:35:34;18.05;;;9.08;;
50010;SDS011;35899;50.352;19.390;2022-12-29T15:38:13;21.17;;;8.65;;
50010;SDS011;35899;50.352;19.390;2022-12-29T15:40:44;72.85;;;22.40;;
50010;SDS011;35899;50.352;19.390;2022-12-29T15:43:28;38.28;;;13.55;;
50010;SDS011;35899;50.352;19.390;2022-12-29T15:46:05;57.63;;;21.73;;
50010;SDS011;35899;50.352;19.390;2022-12-29T15:48:31;102.70;;;34.67;;
50010;SDS011;35899;50.352;19.390;2022-12-29T15:50:59;47.75;;;22.45;;
50010;SDS011;35899;50.352;19.390;2022-12-29T15:53:27;100.72;;;33.10;;
50010;SDS011;35899;50.352;19.390;2022-12-29T15:55:58;84.00;;;29.45;;
50010;SDS011;35899;50.352;19.390;2022-12-29T15:58:39;37.13;;;15.13;;
50010;SDS011;35899;50.352;19.390;2022-12-29T16:01:23;96.10;;;40.92;;
50010;SDS011;35899;50.352;19.390;2022-12-29T16:03:54;41.88;;;19.65;;
50010;SDS011;35899;50.352;19.390;2022-12-29T16:06:36;62.55;;;24.40;;
50010;SDS011;35899;50.352;19.390;2022-12-29T16:09:05;57.83;;;22.58;;
50010;SDS011;35899;50.352;19.390;2022-12-29T16:11:50;121.60;;;53.60;;
50010;SDS011;35899;50.352;19.390;2022-12-29T16:14:19;84.32;;;36.68;;
50010;SDS011;35899;50.352;19.390;2022-12-29T16:16:57;59.35;;;28.32;;
50010;SDS011;35899;50.352;19.390;2022-12-29T16:19:28;38.00;;;16.85;;
50010;SDS011;35899;50.352;19.390;2022-12-29T16:22:12;47.60;;;24.75;;
50010;SDS011;35899;50.352;19.390;2022-12-29T16:24:38;34.90;;;18.30;;
50010;SDS011;35899;50.352;19.390;2022-12-29T16:27:07;26.85;;;14.73;;
50010;SDS011;35899;50.352;19.390;2022-12-29T16:29:56;28.47;;;16.67;;
50010;SDS011;35899;50.352;19.390;2022-12-29T16:32:27;47.95;;;31.15;;
50010;SDS011;35899;50.352;19.390;2022-12-29T16:37:48;36.88;;;22.90;;
50010;SDS011;35899;50.352;19.390;2022-12-29T16:40:49;25.30;;;14.58;;
50010;SDS011;35899;50.352;19.390;2022-12-29T16:43:21;31.65;;;14.87;;
50010;SDS011;35899;50.352;19.390;2022-12-29T16:48:45;22.15;;;10.90;;
50010;SDS011;35899;50.352;19.390;2022-12-29T16:54:02;23.87;;;12.13;;
50010;SDS011;35899;50.352;19.390;2022-12-29T16:56:34;28.73;;;17.15;;
50010;SDS011;35899;50.352;19.390;2022-12-29T16:59:08;24.40;;;15.03;;
50010;SDS011;35899;50.352;19.390;2022-12-29T17:01:44;24.00;;;12.00;;
50010;SDS011;35899;50.352;19.390;2022-12-29T17:04:11;26.60;;;12.40;;
50010;SDS011;35899;50.352;19.390;2022-12-29T17:06:39;33.02;;;19.45;;
50010;SDS011;35899;50.352;19.390;2022-12-29T17:09:25;24.30;;;13.70;;
50010;SDS011;35899;50.352;19.390;2022-12-29T17:11:54;22.70;;;12.80;;
50010;SDS011;35899;50.352;19.390;2022-12-29T17:19:51;27.07;;;13.43;;
50010;SDS011;35899;50.352;19.390;2022-12-29T17:22:22;26.82;;;13.48;;